Time;durP1;ratioP1;P1;durP2;ratioP2;P2;SDS_P1;SDS_P2;PMS_P1;PMS_P2;Temp;Humidity;BMP_temperature;BMP_pressure;BME280_temperature;BME280_humidity;BME280_pressure;Samples;Min_cycle;Max_cycle;Signal;HPM_P1;HPM_P2
2023/04/04 00:01:53;;;;;;;5.82;3.47;;;;;;;2.27;69.69;103281.50;6100160;19;20015;-74
2023/04/04 00:03:58;;;;;;;6.07;3.05;;;;;;;2.29;68.99;103279.81;6095675;19;20041;-74
2023/04/04 00:06:03;;;;;;;7.22;3.40;;;;;;;2.32;69.19;103286.00;6102958;19;20074;-74
2023/04/04 00:08:13;;;;;;;7.22;3.67;;;;;;;2.31;68.97;103281.63;6104772;19;20002;-74
2023/04/04 00:10:19;;;;;;;7.22;3.33;;;;;;;2.29;69.46;103282.41;6082076;19;20780;-74
2023/04/04 00:12:25;;;;;;;7.22;3.72;;;;;;;2.25;68.95;103277.97;6103799;19;20340;-74
2023/04/04 00:14:33;;;;;;;10.02;4.20;;;;;;;2.23;69.40;103272.72;6105683;19;20006;-74
2023/04/04 00:16:43;;;;;;;7.00;3.42;;;;;;;2.25;69.23;103276.25;6107255;19;20329;-74
2023/04/04 00:18:51;;;;;;;7.93;3.70;;;;;;;2.24;69.13;103274.50;6106142;19;20106;-74
2023/04/04 00:20:57;;;;;;;7.82;3.40;;;;;;;2.30;68.86;103276.41;6104401;19;20404;-74
2023/04/04 00:23:05;;;;;;;7.82;3.40;;;;;;;2.30;68.56;103273.81;6107704;19;20040;-75
2023/04/04 00:25:15;;;;;;;9.30;3.85;;;;;;;2.30;68.49;103273.81;6099002;19;20015;-74
2023/04/04 00:27:20;;;;;;;7.25;3.42;;;;;;;2.27;68.57;103263.34;6083918;19;20455;-74
2023/04/04 00:29:26;;;;;;;7.35;3.45;;;;;;;2.34;68.14;103261.00;6106135;19;20014;-74
2023/04/04 00:31:31;;;;;;;6.75;3.80;;;;;;;2.25;68.41;103260.66;6084935;19;20010;-74
2023/04/04 00:33:40;;;;;;;9.73;3.92;;;;;;;2.26;68.53;103267.63;6109756;19;20502;-74
2023/04/04 00:35:47;;;;;;;5.60;3.25;;;;;;;2.25;68.52;103265.88;6118346;19;20034;-74
2023/04/04 00:37:54;;;;;;;7.30;3.60;;;;;;;2.20;68.53;103263.09;6121292;19;20016;-74
2023/04/04 00:39:59;;;;;;;6.60;3.00;;;;;;;2.14;68.54;103259.44;6119515;19;20138;-73
2023/04/04 00:42:09;;;;;;;8.25;3.70;;;;;;;2.10;68.96;103255.84;6123784;19;20009;-75
2023/04/04 00:44:14;;;;;;;6.45;3.40;;;;;;;2.08;68.79;103256.63;6123991;19;20002;-75
2023/04/04 00:46:19;;;;;;;8.35;3.90;;;;;;;2.05;68.93;103247.03;6123659;19;20489;-75
2023/04/04 00:48:24;;;;;;;7.63;3.55;;;;;;;2.05;69.32;103253.94;6123821;19;20163;-74
2023/04/04 00:50:31;;;;;;;8.27;3.42;;;;;;;2.02;69.62;103253.84;6115661;19;20156;-75
2023/04/04 00:52:36;;;;;;;6.25;2.97;;;;;;;1.97;69.22;103261.47;6108508;19;20650;-75
2023/04/04 00:54:51;;;;;;;9.15;3.50;;;;;;;1.93;69.84;103259.59;6105458;19;20015;-75
2023/04/04 00:56:57;;;;;;;6.50;3.42;;;;;;;1.96;70.13;103252.81;6105600;19;20316;-75
2023/04/04 00:59:08;;;;;;;5.47;3.13;;;;;;;1.93;69.86;103257.00;6106328;19;20591;-75
2023/04/04 01:01:13;;;;;;;8.10;3.55;;;;;;;1.94;69.39;103258.75;6102124;19;20069;-74
2023/04/04 01:03:19;;;;;;;7.20;3.45;;;;;;;1.92;70.04;103256.13;6105238;19;20002;-75
2023/04/04 01:05:25;;;;;;;8.43;3.15;;;;;;;1.93;69.82;103259.59;6091736;19;20009;-75
2023/04/04 01:07:30;;;;;;;9.73;3.70;;;;;;;1.90;69.90;103256.91;6103412;19;20073;-75
2023/04/04 01:09:36;;;;;;;6.72;3.22;;;;;;;1.89;70.21;103260.31;6101972;19;20003;-75
2023/04/04 01:11:43;;;;;;;7.63;3.50;;;;;;;1.88;69.95;103261.16;6102797;19;20002;-75
2023/04/04 01:13:50;;;;;;;5.35;3.25;;;;;;;1.88;70.38;103263.75;6101885;19;20011;-74
2023/04/04 01:15:58;;;;;;;7.47;3.67;;;;;;;1.88;70.48;103253.38;6098165;19;20007;-74
2023/04/04 01:18:05;;;;;;;8.48;3.47;;;;;;;1.90;71.03;103251.72;6099220;19;20006;-76
2023/04/04 01:20:15;;;;;;;7.13;3.22;;;;;;;1.86;70.98;103245.53;6103029;19;20058;-76
2023/04/04 01:22:23;;;;;;;6.65;3.78;;;;;;;1.86;71.70;103244.66;6100847;19;20074;-76
2023/04/04 01:24:36;;;;;;;8.20;3.85;;;;;;;1.83;71.53;103247.16;6101934;19;20019;-76
2023/04/04 01:26:45;;;;;;;6.90;3.30;;;;;;;1.82;71.86;103245.38;6103607;19;20002;-73
2023/04/04 01:28:50;;;;;;;8.07;3.67;;;;;;;1.85;72.02;103242.91;6101311;19;20011;-74
2023/04/04 01:30:55;;;;;;;11.23;3.75;;;;;;;1.85;71.95;103238.59;6103709;19;20028;-75
2023/04/04 01:33:03;;;;;;;8.20;3.72;;;;;;;1.82;71.61;103241.09;6101863;19;20002;-74
2023/04/04 01:35:21;;;;;;;6.85;3.20;;;;;;;1.77;71.82;103241.78;6105132;19;20006;-75
2023/04/04 01:37:36;;;;;;;6.78;3.75;;;;;;;1.77;71.68;103244.34;6102166;19;20013;-74
2023/04/04 01:39:46;;;;;;;8.38;3.85;;;;;;;1.69;72.28;103247.56;6100583;19;20011;-74
2023/04/04 01:41:56;;;;;;;9.23;3.90;;;;;;;1.68;72.33;103247.50;6100971;19;20020;-74
2023/04/04 01:44:01;;;;;;;9.93;3.88;;;;;;;1.62;72.30;103239.50;6102729;19;20014;-74
2023/04/04 01:46:11;;;;;;;5.43;3.13;;;;;;;1.59;72.62;103234.22;6098538;19;20007;-75
2023/04/04 01:48:18;;;;;;;8.57;3.92;;;;;;;1.51;72.80;103236.53;6103109;19;20506;-75
2023/04/04 01:50:25;;;;;;;7.35;3.90;;;;;;;1.46;73.01;103240.69;6103375;19;20022;-74
2023/04/04 01:52:30;;;;;;;5.80;3.13;;;;;;;1.44;72.81;103247.50;6100110;19;20035;-74
2023/04/04 01:54:36;;;;;;;9.68;3.10;;;;;;;1.38;73.28;103243.00;6101090;19;20356;-74
2023/04/04 01:56:42;;;;;;;7.78;3.65;;;;;;;1.35;73.41;103252.38;6101201;19;20024;-75
2023/04/04 01:58:51;;;;;;;6.88;3.22;;;;;;;1.24;74.23;103247.69;6101963;19;20023;-77
2023/04/04 02:00:55;;;;;;;9.02;3.72;;;;;;;1.18;73.96;103249.16;6103077;19;20023;-75
2023/04/04 02:03:04;;;;;;;9.10;3.45;;;;;;;1.10;74.30;103243.69;6101099;19;20038;-75
2023/04/04 02:05:12;;;;;;;6.93;3.92;;;;;;;1.06;73.45;103247.00;6100950;19;20014;-75
2023/04/04 02:07:18;;;;;;;7.78;3.38;;;;;;;1.07;73.98;103248.75;6103207;19;20437;-76
2023/04/04 02:09:24;;;;;;;8.57;3.92;;;;;;;1.04;73.89;103248.63;6101812;19;20013;-75
2023/04/04 02:11:32;;;;;;;6.28;3.55;;;;;;;1.02;74.89;103256.34;6102195;19;20007;-75
2023/04/04 02:13:43;;;;;;;9.35;4.05;;;;;;;0.98;75.30;103249.28;6098268;19;20002;-75
2023/04/04 02:15:52;;;;;;;5.95;3.28;;;;;;;0.90;75.47;103255.00;6102924;19;20456;-76
2023/04/04 02:17:57;;;;;;;9.15;3.67;;;;;;;0.86;75.11;103257.47;6105757;19;20030;-75
2023/04/04 02:20:06;;;;;;;8.25;3.55;;;;;;;0.84;75.64;103255.63;6102326;19;20023;-75
2023/04/04 02:22:13;;;;;;;8.98;4.53;;;;;;;0.82;75.10;103255.59;6101844;19;20014;-75
2023/04/04 02:24:19;;;;;;;6.88;3.92;;;;;;;0.82;75.67;103252.13;6102706;19;20007;-75
2023/04/04 02:26:23;;;;;;;8.27;3.67;;;;;;;0.81;76.08;103256.41;6104193;19;20082;-75
2023/04/04 02:28:30;;;;;;;6.80;3.58;;;;;;;0.79;76.60;103260.66;6105355;19;20031;-75
2023/04/04 02:30:35;;;;;;;8.77;3.40;;;;;;;0.76;75.68;103265.69;6104452;19;20010;-75
2023/04/04 02:32:46;;;;;;;5.50;3.25;;;;;;;0.71;75.60;103258.56;6101655;19;20361;-74
2023/04/04 02:34:51;;;;;;;6.75;3.45;;;;;;;0.71;76.59;103259.47;6102121;19;20011;-74
2023/04/04 02:36:58;;;;;;;6.65;3.67;;;;;;;0.68;76.61;103259.34;6102932;19;20009;-75
2023/04/04 02:39:03;;;;;;;7.93;4.38;;;;;;;0.65;77.19;103259.22;6101494;19;20034;-76
2023/04/04 02:41:11;;;;;;;8.23;4.25;;;;;;;0.63;76.74;103255.69;6102219;19;20011;-76
2023/04/04 02:43:16;;;;;;;9.27;3.90;;;;;;;0.61;76.74;103257.34;6099147;19;20014;-76
2023/04/04 02:45:25;;;;;;;6.70;3.50;;;;;;;0.62;76.70;103248.75;6102031;19;20058;-76
2023/04/04 02:47:30;;;;;;;9.13;4.95;;;;;;;0.68;77.25;103241.22;6078530;19;20031;-76
2023/04/04 02:49:41;;;;;;;5.70;3.72;;;;;;;0.61;76.82;103237.53;6095879;19;20010;-76
2023/04/04 02:51:53;;;;;;;9.20;3.30;;;;;;;0.57;77.36;103233.03;6069444;19;20464;-76
2023/04/04 02:54:05;;;;;;;9.38;3.70;;;;;;;0.53;76.89;103235.47;6073920;19;20698;-76
2023/04/04 02:56:13;;;;;;;7.20;3.30;;;;;;;0.47;76.48;103222.28;6072435;19;20086;-76
2023/04/04 02:58:22;;;;;;;5.30;3.15;;;;;;;0.40;77.37;103222.03;6071778;19;20018;-75
2023/04/04 03:00:31;;;;;;;9.02;4.20;;;;;;;0.33;77.79;103217.44;6053287;19;20031;-76
2023/04/04 03:02:41;;;;;;;5.63;3.45;;;;;;;0.31;76.92;103220.78;6094579;19;20003;-76
2023/04/04 03:04:55;;;;;;;8.38;3.80;;;;;;;0.27;78.26;103218.91;6095391;19;20337;-76
2023/04/04 03:07:06;;;;;;;6.63;3.42;;;;;;;0.17;77.53;103217.66;6093697;19;20010;-74
2023/04/04 03:09:18;;;;;;;7.97;3.65;;;;;;;0.08;77.91;103222.44;6097485;19;20511;-75
2023/04/04 03:11:26;;;;;;;6.30;3.28;;;;;;;0.06;77.67;103224.09;6095501;19;20011;-76
2023/04/04 03:13:34;;;;;;;5.82;3.03;;;;;;;0.04;77.82;103217.97;6071591;19;20002;-74
2023/04/04 03:15:43;;;;;;;7.78;3.78;;;;;;;0.02;79.35;103224.78;6100933;19;20002;-77
2023/04/04 03:17:51;;;;;;;6.70;3.25;;;;;;;-0.02;77.52;103216.00;6073253;19;20035;-75
2023/04/04 03:20:01;;;;;;;5.57;3.00;;;;;;;-0.03;79.17;103225.47;6100214;19;20006;-75
2023/04/04 03:22:14;;;;;;;7.57;3.70;;;;;;;-0.08;79.21;103227.00;6076940;19;20082;-75
2023/04/04 03:24:20;;;;;;;7.20;3.47;;;;;;;-0.08;79.08;103232.16;6070038;19;20006;-75
2023/04/04 03:26:29;;;;;;;9.85;3.95;;;;;;;-0.08;79.34;103234.75;6085677;19;20014;-74
2023/04/04 03:28:35;;;;;;;7.38;3.78;;;;;;;-0.12;79.78;103232.84;6103542;19;20018;-75
2023/04/04 03:30:43;;;;;;;8.77;4.75;;;;;;;-0.14;79.83;103233.59;6111806;19;20002;-75
2023/04/04 03:32:52;;;;;;;11.35;5.22;;;;;;;-0.16;79.59;103235.22;6114762;19;20010;-75
2023/04/04 03:35:04;;;;;;;8.07;4.65;;;;;;;-0.23;79.48;103244.44;6112424;19;20363;-75
2023/04/04 03:37:13;;;;;;;9.50;4.38;;;;;;;-0.27;78.76;103240.81;6113820;19;20396;-75
2023/04/04 03:39:18;;;;;;;11.27;4.45;;;;;;;-0.30;79.75;103248.44;6120346;19;20059;-75
2023/04/04 03:41:23;;;;;;;8.30;3.78;;;;;;;-0.31;79.26;103248.38;6123075;19;20018;-75
2023/04/04 03:43:28;;;;;;;7.95;4.18;;;;;;;-0.33;78.61;103245.72;6125920;19;20002;-74
2023/04/04 03:45:38;;;;;;;8.82;4.13;;;;;;;-0.33;80.73;103248.31;6110807;19;20098;-75
2023/04/04 03:47:45;;;;;;;7.57;3.33;;;;;;;-0.34;80.14;103245.63;6110936;19;20084;-74
2023/04/04 03:49:51;;;;;;;7.68;4.00;;;;;;;-0.41;79.61;103241.94;6112955;19;20596;-74
2023/04/04 03:52:01;;;;;;;7.32;4.43;;;;;;;-0.38;81.23;103247.22;6108522;19;20117;-74
2023/04/04 03:54:06;;;;;;;8.60;4.55;;;;;;;-0.40;81.44;103242.81;6104020;19;20114;-74
2023/04/04 03:56:11;;;;;;;7.75;3.85;;;;;;;-0.41;81.49;103241.06;6105287;19;20093;-74
2023/04/04 03:58:16;;;;;;;8.43;4.65;;;;;;;-0.42;80.70;103240.19;6100509;19;20034;-74
2023/04/04 04:00:21;;;;;;;6.28;3.00;;;;;;;-0.50;80.09;103229.50;6106068;19;20034;-74
2023/04/04 04:02:26;;;;;;;10.13;5.28;;;;;;;-0.50;81.70;103239.84;6104006;19;20010;-74
2023/04/04 04:04:31;;;;;;;9.70;5.22;;;;;;;-0.49;82.75;103233.84;6106009;19;20114;-75
2023/04/04 04:06:36;;;;;;;9.00;4.78;;;;;;;-0.51;82.48;103240.63;6108054;19;20010;-74
2023/04/04 04:08:44;;;;;;;13.77;5.53;;;;;;;-0.54;83.17;103237.94;6082780;19;20006;-74
2023/04/04 04:10:48;;;;;;;8.23;4.90;;;;;;;-0.63;82.33;103245.28;6103769;19;20462;-74
2023/04/04 04:12:54;;;;;;;9.68;4.85;;;;;;;-0.68;81.35;103241.63;6106506;19;20014;-75
2023/04/04 04:14:59;;;;;;;13.00;5.22;;;;;;;-0.71;82.92;103244.94;6099619;19;20014;-74
2023/04/04 04:17:07;;;;;;;6.00;3.42;;;;;;;-0.74;82.26;103246.47;6106670;19;20467;-74
2023/04/04 04:19:14;;;;;;;10.65;4.72;;;;;;;-0.79;81.77;103238.56;6102605;19;20472;-74
2023/04/04 04:21:19;;;;;;;12.23;5.03;;;;;;;-0.81;81.67;103245.34;6080981;19;20019;-77
2023/04/04 04:23:27;;;;;;;10.45;4.88;;;;;;;-0.84;81.72;103241.72;6081601;19;20022;-76
2023/04/04 04:25:34;;;;;;;10.25;5.00;;;;;;;-0.83;83.87;103238.34;6104063;19;20471;-77
2023/04/04 04:27:41;;;;;;;8.18;4.70;;;;;;;-0.85;82.14;103242.53;6103484;19;20054;-75
2023/04/04 04:29:46;;;;;;;11.18;4.95;;;;;;;-0.90;82.77;103243.19;6085615;19;19999;-76
2023/04/04 04:31:51;;;;;;;15.10;6.57;;;;;;;-0.90;83.52;103235.47;6103858;19;21300;-76
2023/04/04 04:33:56;;;;;;;11.95;6.00;;;;;;;-0.89;84.27;103242.41;6099577;19;19998;-76
2023/04/04 04:36:02;;;;;;;10.25;5.85;;;;;;;-0.90;83.49;103237.16;6103203;19;20002;-76
2023/04/04 04:38:08;;;;;;;11.43;5.47;;;;;;;-0.99;83.08;103237.63;6103921;19;20007;-76
2023/04/04 04:40:15;;;;;;;7.30;4.32;;;;;;;-1.02;83.07;103242.66;6079144;19;20009;-73
2023/04/04 04:42:23;;;;;;;9.13;4.57;;;;;;;-1.02;83.93;103244.38;6096883;19;20013;-75
2023/04/04 04:44:27;;;;;;;10.55;5.45;;;;;;;-1.06;83.98;103248.47;6102079;19;20006;-75
2023/04/04 04:46:34;;;;;;;11.80;5.40;;;;;;;-1.06;83.37;103247.59;6107162;19;20118;-74
2023/04/04 04:48:39;;;;;;;16.05;7.32;;;;;;;-1.09;84.31;103248.34;6104184;19;20505;-73
2023/04/04 04:50:51;;;;;;;10.25;5.47;;;;;;;-1.06;84.94;103248.47;6097313;19;20329;-75
2023/04/04 04:53:02;;;;;;;8.80;4.55;;;;;;;-1.07;85.12;103254.47;6100791;19;20010;-75
2023/04/04 04:55:12;;;;;;;7.90;4.85;;;;;;;-1.04;85.95;103249.44;6101380;19;20017;-74
2023/04/04 04:57:23;;;;;;;7.57;4.07;;;;;;;-1.12;84.36;103258.53;6104153;19;20768;-75
2023/04/04 04:59:28;;;;;;;14.63;5.00;;;;;;;-1.13;84.49;103256.78;6102205;19;20442;-75
2023/04/04 05:01:33;;;;;;;7.93;4.18;;;;;;;-1.17;84.27;103253.16;6103908;19;20011;-75
2023/04/04 05:03:40;;;;;;;7.28;4.00;;;;;;;-1.19;83.15;103256.47;6104257;19;20010;-74
2023/04/04 05:05:46;;;;;;;8.07;4.53;;;;;;;-1.18;83.92;103247.94;6101030;19;20506;-74
2023/04/04 05:07:51;;;;;;;11.02;4.28;;;;;;;-1.14;84.67;103242.09;6083435;19;20042;-75
2023/04/04 05:09:56;;;;;;;7.03;3.92;;;;;;;-1.14;84.43;103244.66;6104277;19;20011;-75
2023/04/04 05:12:00;;;;;;;12.00;5.32;;;;;;;-1.12;84.42;103255.94;6081110;19;20007;-74
2023/04/04 05:14:08;;;;;;;10.05;4.35;;;;;;;-1.09;85.50;103255.22;6086830;19;20091;-75
2023/04/04 05:16:13;;;;;;;12.10;5.22;;;;;;;-1.12;85.02;103250.78;6105579;19;20038;-77
2023/04/04 05:18:21;;;;;;;12.55;4.68;;;;;;;-1.20;83.90;103254.72;6106920;19;20061;-75
2023/04/04 05:20:26;;;;;;;9.40;4.32;;;;;;;-1.22;84.19;103261.50;6104522;19;20012;-76
2023/04/04 05:22:31;;;;;;;7.18;4.10;;;;;;;-1.17;84.54;103267.75;6109572;19;20459;-76
2023/04/04 05:24:36;;;;;;;7.47;4.07;;;;;;;-1.21;83.91;103261.56;6106194;19;20002;-76
2023/04/04 05:26:41;;;;;;;8.90;4.90;;;;;;;-1.19;85.26;103270.25;6082585;19;20415;-74
2023/04/04 05:28:50;;;;;;;12.65;5.85;;;;;;;-1.18;85.15;103261.72;6102886;19;20011;-76
2023/04/04 05:31:02;;;;;;;8.88;4.40;;;;;;;-1.20;84.36;103267.63;6103120;19;20007;-75
2023/04/04 05:33:07;;;;;;;8.23;4.57;;;;;;;-1.17;85.02;103260.00;6101794;19;20070;-75
2023/04/04 05:35:20;;;;;;;11.07;5.07;;;;;;;-1.14;85.38;103268.78;6102534;19;20468;-75
2023/04/04 05:37:27;;;;;;;11.38;5.30;;;;;;;-1.18;85.37;103274.63;6099771;19;20010;-75
2023/04/04 05:39:32;;;;;;;10.10;5.25;;;;;;;-1.16;84.36;103272.09;6103874;19;20037;-76
2023/04/04 05:41:37;;;;;;;9.50;4.80;;;;;;;-1.13;84.50;103273.13;6098818;19;20002;-75
2023/04/04 05:43:48;;;;;;;10.00;5.25;;;;;;;-1.07;85.14;103272.53;6102610;19;20010;-75
2023/04/04 05:45:52;;;;;;;7.53;4.32;;;;;;;-1.04;84.40;103274.38;6101858;19;20031;-76
2023/04/04 05:48:02;;;;;;;11.13;4.93;;;;;;;-0.99;84.57;103271.19;6102145;19;20062;-76
2023/04/04 05:50:09;;;;;;;9.55;5.18;;;;;;;-0.88;84.06;103274.25;6102311;19;20030;-75
2023/04/04 05:52:15;;;;;;;10.43;5.38;;;;;;;-0.67;84.84;103264.91;6098524;19;20011;-75
2023/04/04 05:54:19;;;;;;;8.55;4.82;;;;;;;-0.50;84.02;103272.50;6101253;19;20039;-76
2023/04/04 05:56:25;;;;;;;12.13;5.22;;;;;;;-0.33;83.38;103270.69;6093463;19;20329;-76
2023/04/04 05:58:30;;;;;;;10.15;5.10;;;;;;;-0.19;82.45;103272.16;6101114;19;20023;-77
2023/04/04 06:00:36;;;;;;;10.27;5.38;;;;;;;-0.01;82.35;103270.34;6099235;19;20014;-75
2023/04/04 06:02:44;;;;;;;9.75;4.78;;;;;;;0.15;81.84;103260.66;6094802;19;20031;-77
2023/04/04 06:04:57;;;;;;;11.77;5.40;;;;;;;0.35;81.83;103262.34;6099717;19;20345;-75
2023/04/04 06:07:02;;;;;;;11.90;6.05;;;;;;;0.59;81.31;103264.16;6104261;19;20018;-75
2023/04/04 06:09:09;;;;;;;8.80;5.10;;;;;;;0.79;80.48;103267.50;6081016;19;20009;-76
2023/04/04 06:11:14;;;;;;;9.52;5.43;;;;;;;0.97;79.76;103264.75;6097670;19;20399;-75
2023/04/04 06:13:19;;;;;;;8.48;4.78;;;;;;;1.14;79.40;103257.66;6098762;19;20377;-75
2023/04/04 06:15:24;;;;;;;8.93;4.75;;;;;;;1.34;79.12;103256.66;6103488;19;20006;-75
2023/04/04 06:17:29;;;;;;;10.07;5.32;;;;;;;1.59;78.69;103255.84;6102412;19;20011;-75
2023/04/04 06:19:35;;;;;;;10.50;5.82;;;;;;;1.74;77.77;103252.91;6072706;19;20007;-75
2023/04/04 06:21:44;;;;;;;9.27;5.03;;;;;;;1.94;77.36;103248.38;6105435;19;20655;-75
2023/04/04 06:23:50;;;;;;;9.55;5.57;;;;;;;2.15;76.71;103263.78;6106462;19;20054;-75
2023/04/04 06:25:58;;;;;;;10.38;5.22;;;;;;;2.34;76.41;103265.28;6110022;19;20027;-76
2023/04/04 06:28:03;;;;;;;11.38;6.05;;;;;;;2.55;75.86;103259.88;6104244;19;20086;-76
2023/04/04 06:30:10;;;;;;;11.23;5.38;;;;;;;2.69;75.76;103265.53;6109837;19;20017;-76
2023/04/04 06:32:15;;;;;;;14.63;6.72;;;;;;;2.91;75.42;103267.06;6116317;19;20019;-76
2023/04/04 06:34:22;;;;;;;14.57;6.38;;;;;;;3.03;74.77;103260.53;6121042;19;20035;-76
2023/04/04 06:36:27;;;;;;;10.32;5.40;;;;;;;3.26;74.41;103270.69;6121372;19;20010;-75
2023/04/04 06:38:35;;;;;;;11.13;5.80;;;;;;;3.37;73.56;103269.31;6127000;19;20055;-77
2023/04/04 06:40:40;;;;;;;12.00;5.85;;;;;;;3.45;71.99;103262.59;6124878;19;20011;-77
2023/04/04 06:42:50;;;;;;;10.00;5.70;;;;;;;3.65;72.80;103252.72;6114731;19;20038;-77
2023/04/04 06:44:55;;;;;;;11.52;6.60;;;;;;;3.72;71.80;103256.38;6108173;19;20014;-75
2023/04/04 06:47:00;;;;;;;12.98;5.72;;;;;;;3.86;71.63;103252.41;6108193;19;20023;-76
2023/04/04 06:49:05;;;;;;;12.38;6.05;;;;;;;4.02;70.83;103245.00;6104318;19;20015;-76
2023/04/04 06:51:12;;;;;;;12.57;6.05;;;;;;;4.11;69.48;103247.88;6082438;19;20006;-76
2023/04/04 06:53:19;;;;;;;10.32;5.55;;;;;;;4.23;69.46;103253.34;6098483;19;20007;-76
2023/04/04 06:55:26;;;;;;;12.18;6.10;;;;;;;4.34;68.07;103249.28;6101191;19;21490;-76
2023/04/04 06:57:32;;;;;;;10.13;5.88;;;;;;;4.61;67.39;103256.00;6101775;19;20479;-76
2023/04/04 06:59:37;;;;;;;8.88;5.65;;;;;;;4.59;67.19;103252.47;6103633;19;20014;-76
2023/04/04 07:01:42;;;;;;;11.93;6.40;;;;;;;4.76;65.16;103250.25;6100783;19;20090;-76
2023/04/04 07:03:48;;;;;;;13.48;5.78;;;;;;;4.95;65.08;103248.91;6099245;19;20711;-75
2023/04/04 07:05:52;;;;;;;8.95;5.28;;;;;;;5.06;63.87;103252.66;6097629;19;20010;-76
2023/04/04 07:07:57;;;;;;;8.35;5.43;;;;;;;5.24;63.57;103255.66;6075550;19;20010;-75
2023/04/04 07:10:02;;;;;;;10.95;5.63;;;;;;;5.47;62.22;103253.47;6099061;19;20115;-73
2023/04/04 07:12:13;;;;;;;8.35;4.95;;;;;;;5.59;60.64;103267.63;6092903;19;20038;-74
2023/04/04 07:14:23;;;;;;;9.90;5.28;;;;;;;5.77;60.13;103265.34;6095587;19;20014;-74
2023/04/04 07:16:30;;;;;;;13.30;5.30;;;;;;;5.97;58.90;103262.25;6090715;19;20003;-74
2023/04/04 07:18:37;;;;;;;10.20;5.22;;;;;;;6.06;58.08;103262.44;6093501;19;20017;-74
2023/04/04 07:20:42;;;;;;;10.05;5.13;;;;;;;6.19;57.97;103266.09;6096561;19;20125;-74
2023/04/04 07:22:47;;;;;;;8.57;4.95;;;;;;;6.41;57.22;103264.72;6097131;19;20118;-74
2023/04/04 07:24:53;;;;;;;9.52;4.75;;;;;;;6.26;56.07;103263.63;6099267;19;20605;-74
2023/04/04 07:26:58;;;;;;;9.65;5.50;;;;;;;6.27;56.73;103261.91;6096675;19;20011;-74
2023/04/04 07:29:09;;;;;;;11.77;5.55;;;;;;;6.42;56.58;103259.50;6076211;19;20734;-74
2023/04/04 07:31:14;;;;;;;9.55;5.03;;;;;;;6.67;56.50;103265.13;6095818;19;20495;-74
2023/04/04 07:33:20;;;;;;;7.88;5.20;;;;;;;6.72;55.19;103269.56;6099065;19;20102;-73
2023/04/04 07:35:24;;;;;;;9.27;4.97;;;;;;;6.87;53.60;103263.66;6095739;19;20014;-76
2023/04/04 07:37:30;;;;;;;10.07;4.45;;;;;;;7.01;54.23;103262.13;6099381;19;20006;-75
2023/04/04 07:39:35;;;;;;;10.48;5.40;;;;;;;6.85;54.08;103264.53;6096935;19;20672;-73
2023/04/04 07:41:40;;;;;;;11.15;5.82;;;;;;;7.19;54.26;103265.84;6098505;19;20090;-75
2023/04/04 07:43:46;;;;;;;11.27;5.25;;;;;;;7.04;53.81;103259.53;6096094;19;20225;-75
2023/04/04 07:45:53;;;;;;;9.25;4.95;;;;;;;6.98;53.93;103269.06;6095977;19;20011;-76
2023/04/04 07:47:58;;;;;;;10.88;5.38;;;;;;;7.32;54.68;103259.00;6095590;19;20458;-75
2023/04/04 07:50:06;;;;;;;9.50;5.47;;;;;;;7.66;54.08;103260.25;6096653;19;20006;-75
2023/04/04 07:52:13;;;;;;;9.65;5.78;;;;;;;7.39;54.08;103258.22;6098384;19;20007;-75
2023/04/04 07:54:18;;;;;;;9.45;5.15;;;;;;;7.54;53.89;103254.91;6093670;19;20041;-75
2023/04/04 07:56:27;;;;;;;10.07;5.82;;;;;;;7.64;51.85;103257.63;6098660;19;20003;-75
2023/04/04 07:58:32;;;;;;;10.40;5.05;;;;;;;7.78;51.00;103257.78;6090415;19;20629;-73
2023/04/04 08:00:39;;;;;;;8.45;5.03;;;;;;;7.95;51.43;103254.44;6094593;19;20014;-75
2023/04/04 08:02:47;;;;;;;8.68;5.05;;;;;;;7.81;50.89;103251.69;6072392;19;20010;-74
2023/04/04 08:04:52;;;;;;;9.80;4.90;;;;;;;8.10;50.13;103247.59;6089634;19;20018;-73
2023/04/04 08:06:57;;;;;;;9.50;5.13;;;;;;;8.06;48.71;103253.69;6093162;19;20500;-73
2023/04/04 08:09:02;;;;;;;9.10;5.20;;;;;;;8.24;48.88;103246.81;6100295;19;20014;-74
2023/04/04 08:11:08;;;;;;;8.75;4.57;;;;;;;8.23;47.24;103242.47;6100644;19;20084;-73
2023/04/04 08:13:13;;;;;;;8.50;4.30;;;;;;;8.38;47.06;103233.84;6100296;19;20031;-74
2023/04/04 08:15:18;;;;;;;12.98;4.50;;;;;;;8.45;46.41;103243.53;6100310;19;20615;-74
2023/04/04 08:17:23;;;;;;;7.20;3.80;;;;;;;8.48;43.31;103240.94;6098862;19;20002;-75
2023/04/04 08:19:31;;;;;;;7.53;3.83;;;;;;;8.46;42.87;103235.69;6098085;19;20015;-75
2023/04/04 08:21:36;;;;;;;8.25;4.22;;;;;;;8.77;44.05;103238.50;6098714;19;20014;-75
2023/04/04 08:23:43;;;;;;;6.63;3.40;;;;;;;8.82;42.49;103235.88;6096080;19;20515;-75
2023/04/04 08:25:48;;;;;;;8.35;3.78;;;;;;;8.66;40.90;103246.31;6095495;19;20519;-75
2023/04/04 08:27:53;;;;;;;6.03;3.55;;;;;;;8.65;41.38;103244.53;6094437;19;20014;-75
2023/04/04 08:29:58;;;;;;;7.35;3.60;;;;;;;8.40;40.74;103240.00;6096688;19;20009;-75
2023/04/04 08:32:03;;;;;;;6.95;3.65;;;;;;;8.28;41.99;103239.00;6096449;19;20011;-74
2023/04/04 08:34:09;;;;;;;7.78;3.88;;;;;;;8.40;41.32;103238.28;6097571;19;20006;-75
2023/04/04 08:36:17;;;;;;;9.98;3.75;;;;;;;8.39;41.02;103240.84;6096148;19;20377;-74
2023/04/04 08:38:22;;;;;;;9.02;4.50;;;;;;;8.40;39.77;103237.38;6099154;19;20013;-75
2023/04/04 08:40:29;;;;;;;7.97;3.83;;;;;;;8.40;39.60;103242.63;6099044;19;20743;-75
2023/04/04 08:42:35;;;;;;;9.10;4.07;;;;;;;8.26;41.00;103235.50;6072318;19;20082;-75
2023/04/04 08:44:44;;;;;;;11.07;4.65;;;;;;;8.56;41.44;103232.25;6095851;19;20003;-74
2023/04/04 08:46:51;;;;;;;8.60;4.68;;;;;;;8.88;41.15;103233.31;6098921;19;20532;-75
2023/04/04 08:49:00;;;;;;;9.50;4.40;;;;;;;8.89;39.33;103232.44;6100693;19;20035;-75
2023/04/04 08:51:07;;;;;;;9.30;5.03;;;;;;;8.83;40.16;103230.66;6096640;19;20137;-74
2023/04/04 08:53:16;;;;;;;7.25;3.95;;;;;;;9.10;39.43;103232.53;6094684;19;20070;-76
2023/04/04 08:55:21;;;;;;;9.32;4.43;;;;;;;9.04;40.09;103229.03;6077915;19;20011;-75
2023/04/04 08:57:26;;;;;;;8.93;4.13;;;;;;;9.21;40.54;103229.94;6098982;19;20073;-74
2023/04/04 08:59:31;;;;;;;7.70;4.00;;;;;;;8.97;39.54;103233.34;6094437;19;20002;-74
2023/04/04 09:01:36;;;;;;;8.73;4.32;;;;;;;9.14;39.45;103225.56;6074197;19;20287;-75
2023/04/04 09:03:43;;;;;;;7.90;3.70;;;;;;;9.32;40.22;103229.97;6097112;19;20486;-74
2023/04/04 09:05:49;;;;;;;11.63;4.43;;;;;;;9.10;38.69;103239.53;6098257;19;20463;-75
2023/04/04 09:07:55;;;;;;;10.32;4.90;;;;;;;8.91;39.26;103234.19;6101121;19;20006;-75
2023/04/04 09:10:04;;;;;;;9.30;4.82;;;;;;;9.33;39.03;103235.25;6079493;19;20488;-75
2023/04/04 09:12:11;;;;;;;10.50;4.57;;;;;;;9.73;39.06;103232.69;6103860;19;20006;-75
2023/04/04 09:14:20;;;;;;;9.40;4.60;;;;;;;9.21;39.04;103228.19;6074034;19;20388;-76
2023/04/04 09:16:26;;;;;;;10.75;4.72;;;;;;;9.43;39.37;103230.91;6097171;19;20022;-75
2023/04/04 09:18:36;;;;;;;10.07;4.45;;;;;;;9.73;39.69;103229.19;6096086;19;20007;-74
2023/04/04 09:20:42;;;;;;;9.23;4.30;;;;;;;9.56;38.89;103232.69;6093993;19;20086;-75
2023/04/04 09:22:48;;;;;;;15.65;5.22;;;;;;;9.30;38.32;103234.38;6095038;19;20361;-75
2023/04/04 09:24:53;;;;;;;7.18;4.18;;;;;;;9.48;38.61;103234.41;6094030;19;20045;-75
2023/04/04 09:27:09;;;;;;;12.27;5.22;;;;;;;9.62;38.44;103227.44;6076415;19;20007;-75
2023/04/04 09:29:14;;;;;;;10.18;5.68;;;;;;;9.73;38.58;103224.81;6099710;19;20479;-75
2023/04/04 09:31:23;;;;;;;13.25;5.13;;;;;;;10.02;38.29;103224.84;6104456;19;20014;-75
2023/04/04 09:33:29;;;;;;;10.27;5.00;;;;;;;9.31;38.72;103223.00;6105406;19;20010;-75
2023/04/04 09:35:38;;;;;;;8.40;4.80;;;;;;;9.70;37.31;103223.94;6107572;19;20012;-75
2023/04/04 09:37:44;;;;;;;9.48;4.82;;;;;;;9.77;38.11;103220.44;6109824;19;20006;-75
2023/04/04 09:39:50;;;;;;;9.10;4.35;;;;;;;10.02;38.12;103227.47;6113234;19;20014;-75
2023/04/04 09:41:56;;;;;;;7.13;4.05;;;;;;;9.92;36.78;103230.97;6117213;19;20010;-75
2023/04/04 09:44:06;;;;;;;12.27;5.15;;;;;;;9.61;37.70;103233.56;6115140;19;19999;-75
2023/04/04 09:46:17;;;;;;;12.85;4.97;;;;;;;10.10;38.44;103230.97;6120578;19;20013;-74
2023/04/04 09:48:28;;;;;;;11.35;4.40;;;;;;;9.76;36.81;103230.06;6118011;19;20410;-76
2023/04/04 09:50:32;;;;;;;11.60;4.53;;;;;;;9.73;38.07;103224.81;6120574;19;19999;-77
2023/04/04 09:52:37;;;;;;;8.98;4.68;;;;;;;9.96;37.05;103226.59;6111776;19;20471;-75
2023/04/04 09:54:42;;;;;;;8.10;5.13;;;;;;;10.31;37.16;103226.63;6113231;19;20009;-76